Time;durP1;ratioP1;P1;durP2;ratioP2;P2;SDS_P1;SDS_P2;PMS_P1;PMS_P2;Temp;Humidity;BMP_temperature;BMP_pressure;BME280_temperature;BME280_humidity;BME280_pressure;Samples;Min_cycle;Max_cycle;Signal;HPM_P1;HPM_P2
2021/10/08 00:01:55;;;;;;;5.07;2.10;;;;;;;3.67;64.59;101602.77;1707794;81;20940;-56
2021/10/08 00:04:22;;;;;;;8.53;3.23;;;;;;;3.64;64.68;101602.77;1704961;81;20943;-55
2021/10/08 00:06:48;;;;;;;4.83;3.50;;;;;;;3.60;64.74;101600.50;1703030;81;21266;-55
2021/10/08 00:09:15;;;;;;;6.17;3.37;;;;;;;3.59;64.80;101605.80;1702827;81;21078;-55
2021/10/08 00:11:41;;;;;;;7.47;4.13;;;;;;;3.55;64.86;101604.90;1705101;81;21053;-56
2021/10/08 00:14:08;;;;;;;7.83;4.27;;;;;;;3.51;64.90;101600.41;1711326;81;21557;-55
2021/10/08 00:16:34;;;;;;;10.97;4.77;;;;;;;3.47;65.01;101604.38;1706178;81;21569;-55
2021/10/08 00:19:01;;;;;;;14.67;4.30;;;;;;;3.42;64.93;101614.95;1706458;81;21208;-55
2021/10/08 00:21:28;;;;;;;8.60;5.07;;;;;;;3.33;65.10;101615.75;1705980;81;21087;-55
2021/10/08 00:23:54;;;;;;;9.63;3.90;;;;;;;3.28;65.27;101612.16;1701377;81;21186;-56
2021/10/08 00:26:20;;;;;;;10.20;4.50;;;;;;;3.22;65.27;101612.54;1690390;82;21100;-55
2021/10/08 00:28:46;;;;;;;9.47;4.43;;;;;;;3.14;65.42;101608.91;1738000;79;21045;-56
2021/10/08 00:31:13;;;;;;;7.63;4.53;;;;;;;3.06;65.71;101611.91;1740454;79;21409;-55
2021/10/08 00:33:40;;;;;;;6.77;4.37;;;;;;;2.97;65.90;101608.27;1736293;79;22664;-56
2021/10/08 00:36:06;;;;;;;6.13;3.77;;;;;;;2.91;66.02;101610.83;1738823;79;21819;-56
2021/10/08 00:38:33;;;;;;;7.97;4.07;;;;;;;2.85;66.12;101613.42;1742494;79;21651;-56
2021/10/08 00:40:59;;;;;;;8.23;3.60;;;;;;;2.81;66.20;101614.24;1743801;79;21125;-55
2021/10/08 00:43:25;;;;;;;12.03;4.73;;;;;;;2.79;66.28;101617.34;1738762;79;21218;-56
2021/10/08 00:45:51;;;;;;;8.30;3.80;;;;;;;2.75;66.37;101613.28;1687548;83;21077;-55
2021/10/08 00:48:18;;;;;;;8.60;3.70;;;;;;;2.71;66.47;101616.36;1743074;79;21105;-55
2021/10/08 00:50:47;;;;;;;11.83;4.07;;;;;;;2.68;66.45;101613.64;1740917;79;21578;-55
2021/10/08 00:53:14;;;;;;;5.83;3.43;;;;;;;2.63;66.61;101607.39;1738936;79;21073;-55
2021/10/08 00:55:46;;;;;;;7.83;3.67;;;;;;;2.60;66.73;101605.56;1735163;79;21074;-55
2021/10/08 00:58:15;;;;;;;7.37;3.60;;;;;;;2.57;66.82;101615.25;1744134;79;21556;-55
2021/10/08 01:00:43;;;;;;;9.90;3.20;;;;;;;2.57;66.85;101617.91;1744541;79;21374;-55
2021/10/08 01:03:09;;;;;;;5.93;3.10;;;;;;;2.56;66.97;101606.81;1743131;79;20971;-55
2021/10/08 01:05:36;;;;;;;5.90;3.30;;;;;;;2.58;67.08;101601.98;1741904;79;20961;-55
2021/10/08 01:08:04;;;;;;;7.03;3.40;;;;;;;2.60;67.04;101613.55;1743802;79;21110;-55
2021/10/08 01:10:31;;;;;;;9.13;4.23;;;;;;;2.58;67.01;101615.28;1743318;79;21289;-55
2021/10/08 01:12:59;;;;;;;11.00;4.90;;;;;;;2.56;67.00;101603.72;1740058;79;21113;-55
2021/10/08 01:15:27;;;;;;;9.83;3.87;;;;;;;2.55;67.01;101615.70;1740817;79;21441;-54
2021/10/08 01:17:54;;;;;;;7.83;3.70;;;;;;;2.50;66.98;101615.61;1741278;79;21626;-55
2021/10/08 01:20:22;;;;;;;10.07;4.43;;;;;;;2.47;66.93;101614.66;1720040;80;22454;-54
2021/10/08 01:22:50;;;;;;;11.77;4.37;;;;;;;2.40;67.00;101619.44;1742373;79;21066;-55
2021/10/08 01:25:17;;;;;;;6.80;4.77;;;;;;;2.35;67.04;101618.48;1742186;79;21694;-55
2021/10/08 01:27:44;;;;;;;10.43;5.03;;;;;;;2.29;67.20;101615.32;1738870;80;21110;-53
2021/10/08 01:30:12;;;;;;;13.53;5.27;;;;;;;2.28;67.35;101617.52;1743967;80;22392;-54
2021/10/08 01:32:40;;;;;;;6.90;5.00;;;;;;;2.25;67.45;101613.04;1741750;80;21138;-54
2021/10/08 01:35:08;;;;;;;10.70;5.60;;;;;;;2.25;67.52;101614.80;1737519;80;21171;-53
2021/10/08 01:37:35;;;;;;;12.20;5.50;;;;;;;2.23;67.52;101613.88;1698170;82;21061;-54
2021/10/08 01:40:03;;;;;;;12.10;6.33;;;;;;;2.21;67.47;101615.17;1746651;80;21101;-55
2021/10/08 01:42:31;;;;;;;7.97;5.10;;;;;;;2.20;67.53;101613.84;1744391;80;21468;-55
2021/10/08 01:44:59;;;;;;;8.47;5.70;;;;;;;2.17;67.49;101618.67;1741663;80;21635;-55
2021/10/08 01:47:26;;;;;;;10.70;5.07;;;;;;;2.13;67.45;101612.84;1742463;80;21663;-55
2021/10/08 01:49:53;;;;;;;15.50;7.37;;;;;;;2.10;67.57;101619.45;1735026;80;21137;-54
2021/10/08 01:52:20;;;;;;;8.90;5.40;;;;;;;2.08;67.61;101616.30;1741026;80;21063;-54
2021/10/08 01:54:48;;;;;;;11.03;6.03;;;;;;;2.05;67.60;101611.83;1737820;80;21069;-55
2021/10/08 01:57:15;;;;;;;8.60;4.63;;;;;;;2.03;67.62;101610.04;1742778;80;21452;-55
2021/10/08 01:59:41;;;;;;;13.87;5.27;;;;;;;2.02;67.63;101618.88;1743419;79;21636;-54
2021/10/08 02:02:10;;;;;;;12.30;4.93;;;;;;;1.99;67.60;101617.48;1739627;80;21467;-55
2021/10/08 02:04:36;;;;;;;12.50;4.87;;;;;;;1.96;67.71;101624.09;1741831;80;21484;-55
2021/10/08 02:07:03;;;;;;;12.93;4.73;;;;;;;1.92;67.82;101624.46;1743124;80;21046;-55
2021/10/08 02:09:30;;;;;;;11.77;5.37;;;;;;;1.89;67.78;101623.97;1739771;80;21145;-55
2021/10/08 02:11:57;;;;;;;11.03;5.37;;;;;;;1.86;67.86;101622.61;1743718;80;21116;-55
2021/10/08 02:14:25;;;;;;;11.83;5.70;;;;;;;1.85;67.91;101631.44;1737119;80;21102;-55
2021/10/08 02:16:52;;;;;;;8.17;5.03;;;;;;;1.80;67.93;101627.80;1735118;80;21101;-55
2021/10/08 02:19:19;;;;;;;12.77;4.87;;;;;;;1.78;68.06;101632.21;1742492;80;21057;-55
2021/10/08 02:21:48;;;;;;;12.57;4.80;;;;;;;1.76;68.20;101631.28;1739385;80;22330;-55
2021/10/08 02:24:15;;;;;;;9.97;4.17;;;;;;;1.78;68.29;101633.97;1745318;80;21081;-55
2021/10/08 02:26:43;;;;;;;8.57;4.00;;;;;;;1.79;68.36;101636.63;1749037;80;21417;-55
2021/10/08 02:29:10;;;;;;;9.33;3.87;;;;;;;1.83;68.31;101636.25;1740080;80;20926;-55
2021/10/08 02:31:37;;;;;;;8.57;4.20;;;;;;;1.84;68.29;101639.38;1742305;80;20978;-55
2021/10/08 02:34:04;;;;;;;8.90;5.23;;;;;;;1.84;68.25;101635.39;1720615;80;21106;-55
2021/10/08 02:36:30;;;;;;;8.87;5.03;;;;;;;1.84;68.21;101638.95;1742451;80;20911;-55
2021/10/08 02:38:57;;;;;;;8.57;5.27;;;;;;;1.84;68.24;101640.70;1746581;80;20955;-55
2021/10/08 02:41:24;;;;;;;11.77;5.40;;;;;;;1.84;68.18;101645.58;1745722;80;20935;-55
2021/10/08 02:43:51;;;;;;;9.87;5.73;;;;;;;1.82;68.15;101646.41;1745389;80;20992;-55
2021/10/08 02:46:17;;;;;;;9.20;4.90;;;;;;;1.81;68.15;101653.48;1743929;80;21339;-55
2021/10/08 02:48:44;;;;;;;7.57;4.43;;;;;;;1.79;68.18;101651.66;1748679;80;20958;-55
2021/10/08 02:51:10;;;;;;;8.63;5.23;;;;;;;1.77;68.09;101655.64;1740499;79;21428;-55
2021/10/08 02:53:36;;;;;;;8.87;5.27;;;;;;;1.75;68.17;101657.80;1744227;80;21551;-54
2021/10/08 02:56:04;;;;;;;8.97;4.67;;;;;;;1.74;68.21;101653.35;1746269;80;21376;-55
2021/10/08 02:58:32;;;;;;;10.67;5.53;;;;;;;1.70;68.18;101656.38;1744877;80;21453;-54
2021/10/08 03:00:58;;;;;;;8.07;4.57;;;;;;;1.69;68.30;101659.92;1740524;80;21560;-54
2021/10/08 03:03:25;;;;;;;10.93;5.67;;;;;;;1.67;68.28;101655.45;1743448;79;21232;-54
2021/10/08 03:05:51;;;;;;;9.27;5.23;;;;;;;1.67;68.33;101663.41;1714674;80;21094;-54
2021/10/08 03:08:18;;;;;;;11.97;5.37;;;;;;;1.63;68.44;101664.20;1738643;80;21065;-54
2021/10/08 03:10:44;;;;;;;11.17;5.70;;;;;;;1.62;68.55;101659.33;1741009;80;21153;-54
2021/10/08 03:13:12;;;;;;;9.30;4.33;;;;;;;1.60;68.67;101663.73;1738426;80;21046;-54
2021/10/08 03:15:38;;;;;;;8.93;3.87;;;;;;;1.57;68.69;101665.42;1744151;80;21074;-54
2021/10/08 03:18:05;;;;;;;8.40;4.93;;;;;;;1.56;68.66;101664.53;1738964;80;21101;-55
2021/10/08 03:20:32;;;;;;;8.67;4.90;;;;;;;1.53;68.70;101667.15;1739856;80;21064;-54
2021/10/08 03:22:59;;;;;;;9.57;3.67;;;;;;;1.53;68.82;101671.56;1742685;80;22773;-55
2021/10/08 03:25:25;;;;;;;7.43;3.50;;;;;;;1.51;68.92;101672.42;1732413;79;21368;-55
2021/10/08 03:27:52;;;;;;;8.67;4.27;;;;;;;1.48;69.07;101680.31;1732403;79;21006;-55
2021/10/08 03:30:18;;;;;;;10.63;4.23;;;;;;;1.48;69.18;101680.31;1732994;79;21061;-55
2021/10/08 03:32:46;;;;;;;7.90;4.20;;;;;;;1.48;69.28;101678.98;1737291;79;21033;-55
2021/10/08 03:35:12;;;;;;;10.80;4.83;;;;;;;1.51;69.29;101676.83;1727326;79;21221;-55
2021/10/08 03:38:21;;;;;;;11.90;4.43;;;;;;;1.52;69.30;101682.61;1737611;79;21046;-55
2021/10/08 03:40:16;;;;;;;9.40;4.47;;;;;;;1.53;69.30;101682.61;1705468;80;21586;-55
2021/10/08 03:42:40;;;;;;;6.33;4.17;;;;;;;1.53;69.30;101689.25;1734459;79;22372;-54
2021/10/08 03:45:13;;;;;;;9.60;4.43;;;;;;;1.55;69.31;101679.09;1735040;79;21068;-55
2021/10/08 03:50:22;;;;;;;12.10;4.42;;;;;;;1.58;69.35;101688.45;1736691;79;21050;-55
2021/10/08 03:52:48;;;;;;;7.40;3.53;;;;;;;1.60;69.39;101685.41;1731294;79;21093;-56
2021/10/08 03:55:14;;;;;;;12.27;5.43;;;;;;;1.61;69.32;101692.08;1732094;79;21018;-56
2021/10/08 03:57:40;;;;;;;7.97;3.73;;;;;;;1.62;69.28;101688.52;1734996;79;21084;-55
2021/10/08 04:00:10;;;;;;;10.43;5.17;;;;;;;1.64;69.29;101691.21;1731716;79;21085;-55
2021/10/08 04:02:38;;;;;;;9.37;5.27;;;;;;;1.65;69.30;101685.04;1735267;79;21089;-56
2021/10/08 04:05:06;;;;;;;10.23;5.03;;;;;;;1.68;69.29;101683.78;1733039;79;21042;-55
2021/10/08 04:07:34;;;;;;;10.90;5.10;;;;;;;1.70;69.26;101688.70;1730163;79;21538;-55
2021/10/08 04:10:01;;;;;;;14.37;6.37;;;;;;;1.72;69.29;101685.61;1710253;80;21365;-56
2021/10/08 04:12:28;;;;;;;10.47;5.50;;;;;;;1.75;69.34;101689.66;1733134;79;21594;-55
2021/10/08 04:14:55;;;;;;;26.00;4.97;;;;;;;1.78;69.32;101691.05;1729593;79;21172;-56
2021/10/08 04:17:21;;;;;;;12.10;5.37;;;;;;;1.79;69.37;101691.05;1733861;79;21074;-55
2021/10/08 04:19:48;;;;;;;23.70;5.60;;;;;;;1.83;69.38;101693.34;1733822;79;21102;-55
2021/10/08 04:22:15;;;;;;;19.07;5.30;;;;;;;1.86;69.44;101696.07;1732608;79;21105;-55
2021/10/08 04:24:41;;;;;;;19.60;5.63;;;;;;;1.89;69.49;101693.02;1732516;79;21049;-56
2021/10/08 04:27:08;;;;;;;39.37;7.73;;;;;;;1.94;69.56;101697.53;1719875;81;21102;-55
2021/10/08 04:29:34;;;;;;;20.90;6.20;;;;;;;1.98;69.55;101696.70;1715582;81;21054;-56
2021/10/08 04:32:01;;;;;;;35.30;7.00;;;;;;;2.01;69.55;101697.66;1716466;81;20962;-56
2021/10/08 04:34:27;;;;;;;18.33;5.70;;;;;;;2.06;69.75;101698.62;1718876;81;21442;-56
2021/10/08 04:36:54;;;;;;;23.90;7.43;;;;;;;2.11;69.73;101698.72;1724230;81;21543;-55
2021/10/08 04:39:20;;;;;;;19.33;5.50;;;;;;;2.17;69.83;101699.70;1727027;81;20860;-56
2021/10/08 04:41:47;;;;;;;20.17;6.53;;;;;;;2.22;69.92;101698.44;1716266;81;21058;-56
2021/10/08 04:44:15;;;;;;;27.03;5.90;;;;;;;2.28;70.02;101701.22;1720205;81;21065;-56
2021/10/08 04:46:42;;;;;;;22.70;5.80;;;;;;;2.33;70.10;101702.17;1719800;81;21560;-55
2021/10/08 04:49:08;;;;;;;20.30;5.90;;;;;;;2.41;70.21;101691.23;1720087;81;21478;-56
2021/10/08 04:51:35;;;;;;;21.20;4.17;;;;;;;2.49;70.31;101697.55;1716772;81;21959;-56
2021/10/08 04:54:02;;;;;;;20.13;4.53;;;;;;;2.58;70.51;101701.69;1723138;81;21810;-57
2021/10/08 04:56:33;;;;;;;18.80;3.40;;;;;;;2.70;70.65;101702.75;1721358;81;20911;-55
2021/10/08 04:58:58;;;;;;;13.07;4.27;;;;;;;2.82;70.65;101701.58;1716982;81;21045;-56
2021/10/08 05:01:24;;;;;;;15.57;5.23;;;;;;;2.92;70.57;101700.40;1713839;81;21058;-56
2021/10/08 05:03:50;;;;;;;20.40;4.67;;;;;;;3.04;70.42;101709.00;1714655;81;21113;-56
2021/10/08 05:06:17;;;;;;;19.10;6.10;;;;;;;3.16;70.37;101706.48;1721235;81;21123;-56
2021/10/08 05:08:45;;;;;;;14.53;4.90;;;;;;;3.27;70.48;101707.95;1716360;81;21045;-56
2021/10/08 05:11:12;;;;;;;23.57;5.63;;;;;;;3.42;70.67;101711.69;1721149;81;21555;-56
2021/10/08 05:13:40;;;;;;;12.40;4.40;;;;;;;3.59;70.35;101709.22;1715638;81;21590;-56
2021/10/08 05:16:06;;;;;;;15.80;4.37;;;;;;;3.77;69.75;101705.42;1719659;81;21532;-56
2021/10/08 05:18:33;;;;;;;6.63;3.63;;;;;;;4.01;68.97;101709.20;1719002;81;23302;-55
2021/10/08 05:21:00;;;;;;;9.47;3.70;;;;;;;4.23;68.31;101702.31;1716610;81;21152;-56
2021/10/08 05:23:26;;;;;;;9.30;3.87;;;;;;;4.44;67.50;101702.02;1716046;81;21053;-55
2021/10/08 05:25:53;;;;;;;9.47;3.73;;;;;;;4.65;66.76;101701.74;1727630;81;21495;-56
2021/10/08 05:28:19;;;;;;;14.10;4.63;;;;;;;4.84;66.11;101698.31;1717244;81;21688;-56
2021/10/08 05:30:46;;;;;;;9.80;4.90;;;;;;;4.97;65.34;101697.92;1715377;81;21145;-56
2021/10/08 05:33:13;;;;;;;11.57;4.20;;;;;;;5.10;64.64;101694.02;1721481;81;21417;-55
2021/10/08 05:35:40;;;;;;;11.23;4.40;;;;;;;5.24;64.01;101698.06;1723533;81;20947;-55
2021/10/08 05:38:06;;;;;;;16.27;4.80;;;;;;;5.37;63.57;101693.21;1718933;81;21456;-55
2021/10/08 05:40:33;;;;;;;14.00;5.33;;;;;;;5.51;63.06;101694.17;1692246;81;20939;-55
2021/10/08 05:43:01;;;;;;;12.70;4.20;;;;;;;5.64;62.43;101691.08;1728314;81;21390;-56
2021/10/08 05:45:29;;;;;;;12.43;4.57;;;;;;;5.76;61.72;101692.90;1692712;81;20974;-56
2021/10/08 05:47:56;;;;;;;11.17;5.17;;;;;;;5.83;61.10;101698.25;1718155;81;21019;-56
2021/10/08 05:50:22;;;;;;;10.17;3.73;;;;;;;5.90;60.73;101694.73;1723067;81;21105;-55
2021/10/08 05:52:49;;;;;;;16.57;4.97;;;;;;;5.97;60.50;101699.19;1720529;81;21401;-55
2021/10/08 05:55:15;;;;;;;9.20;5.40;;;;;;;6.04;60.16;101701.42;1725390;81;21452;-56
2021/10/08 05:57:42;;;;;;;12.07;4.83;;;;;;;6.10;59.80;101701.45;1720172;81;21565;-55
2021/10/08 06:00:10;;;;;;;10.90;4.70;;;;;;;6.16;59.59;101711.25;1730687;81;21509;-55
2021/10/08 06:02:43;;;;;;;13.28;4.15;;;;;;;6.23;59.27;101706.34;1722555;81;27272;-56
2021/10/08 06:05:11;;;;;;;8.80;4.33;;;;;;;6.28;59.10;101704.58;1720402;81;21109;-56
2021/10/08 06:07:37;;;;;;;16.67;5.20;;;;;;;6.32;59.03;101707.24;1722273;81;21094;-55
2021/10/08 06:10:06;;;;;;;12.93;5.07;;;;;;;6.39;58.87;101711.69;1717701;81;20994;-55
2021/10/08 06:12:33;;;;;;;8.60;4.80;;;;;;;6.45;58.64;101710.38;1724671;81;21086;-56
2021/10/08 06:15:00;;;;;;;18.00;4.67;;;;;;;6.49;58.38;101706.34;1715522;81;21162;-55
2021/10/08 06:17:27;;;;;;;12.43;6.10;;;;;;;6.54;58.34;101708.14;1722791;81;21066;-55
2021/10/08 06:19:53;;;;;;;15.07;4.90;;;;;;;6.59;58.12;101706.34;1724637;81;21516;-56
2021/10/08 06:22:20;;;;;;;11.37;5.93;;;;;;;6.64;57.68;101705.88;1720285;81;21383;-56
2021/10/08 06:24:46;;;;;;;16.87;5.07;;;;;;;6.70;57.34;101708.56;1719953;81;21114;-55
2021/10/08 06:27:13;;;;;;;18.93;5.90;;;;;;;6.73;57.00;101703.19;1716284;80;21769;-55
2021/10/08 06:29:40;;;;;;;10.27;5.70;;;;;;;6.76;56.91;101701.86;1722101;81;21539;-56
2021/10/08 06:32:07;;;;;;;12.17;4.73;;;;;;;6.81;56.55;101697.81;1718619;81;21673;-56
2021/10/08 06:34:34;;;;;;;18.17;4.63;;;;;;;6.85;56.32;101702.28;1718784;81;21579;-56
2021/10/08 06:37:00;;;;;;;9.10;3.90;;;;;;;6.92;56.04;101706.73;1721029;81;21105;-55
2021/10/08 06:42:06;;;;;;;9.53;4.40;;;;;;;7.00;55.13;101697.33;1866062;74;22058;-56
2021/10/08 06:44:34;;;;;;;10.53;4.37;;;;;;;6.98;54.55;101709.83;1837124;75;20938;-55
2021/10/08 06:47:01;;;;;;;19.23;4.40;;;;;;;6.95;54.27;101701.83;1768486;79;21203;-56
2021/10/08 06:49:27;;;;;;;7.23;3.40;;;;;;;6.93;54.27;101695.13;1765514;79;21634;-55
2021/10/08 06:51:54;;;;;;;9.70;4.00;;;;;;;6.94;54.26;101701.37;1800912;78;21574;-55
2021/10/08 06:54:21;;;;;;;11.60;3.47;;;;;;;6.96;53.98;101703.16;1784575;78;20975;-55
2021/10/08 06:56:50;;;;;;;10.67;3.83;;;;;;;6.98;53.77;101697.33;1797561;77;21117;-57
2021/10/08 06:59:18;;;;;;;6.97;3.30;;;;;;;7.01;53.55;101692.42;1765007;78;21024;-55
2021/10/08 07:01:46;;;;;;;11.77;3.43;;;;;;;7.04;53.48;101687.97;1779876;78;21542;-56
2021/10/08 07:04:12;;;;;;;9.57;4.13;;;;;;;7.09;53.34;101688.83;1765758;78;21045;-55
2021/10/08 07:06:41;;;;;;;33.00;5.43;;;;;;;7.17;53.32;101683.44;1773234;79;21031;-56
2021/10/08 07:09:09;;;;;;;13.77;3.50;;;;;;;7.29;53.51;101687.42;1776580;79;21063;-55
2021/10/08 07:11:36;;;;;;;5.50;2.87;;;;;;;7.41;53.23;101684.67;1777580;79;21166;-56
2021/10/08 07:14:02;;;;;;;14.23;3.63;;;;;;;7.54;52.58;101681.05;1776070;79;21087;-55
2021/10/08 07:16:30;;;;;;;9.00;3.03;;;;;;;7.68;52.54;101684.09;1770201;79;21060;-55
2021/10/08 07:18:58;;;;;;;10.50;2.93;;;;;;;7.80;52.03;101692.07;1774480;79;21056;-56
2021/10/08 07:21:24;;;;;;;5.33;3.07;;;;;;;7.89;51.54;101685.31;1775124;78;21049;-57
2021/10/08 07:23:51;;;;;;;7.40;2.53;;;;;;;7.97;51.04;101680.34;1773756;79;21150;-55
2021/10/08 07:26:18;;;;;;;8.17;2.80;;;;;;;8.06;50.64;101679.83;1777065;78;20980;-55
2021/10/08 07:28:44;;;;;;;8.67;2.93;;;;;;;8.14;50.69;101677.53;1778493;78;21096;-56
2021/10/08 07:31:11;;;;;;;10.57;2.30;;;;;;;8.24;50.17;101678.34;1799256;77;21018;-55
2021/10/08 07:33:37;;;;;;;7.00;1.83;;;;;;;8.32;49.28;101673.84;1799764;78;21069;-55
2021/10/08 07:36:04;;;;;;;10.97;2.50;;;;;;;8.38;49.03;101680.48;1796836;78;22036;-56
2021/10/08 07:38:30;;;;;;;12.77;2.73;;;;;;;8.47;48.94;101676.38;1806036;77;21151;-56
2021/10/08 07:40:57;;;;;;;8.70;2.73;;;;;;;8.57;48.89;101673.16;1772077;78;21098;-57
2021/10/08 07:43:23;;;;;;;16.63;2.63;;;;;;;8.68;48.36;101675.27;1797732;77;21091;-56
2021/10/08 07:45:49;;;;;;;4.17;2.00;;;;;;;8.75;47.99;101674.78;1799797;78;21045;-55
2021/10/08 07:48:16;;;;;;;12.93;1.90;;;;;;;8.80;47.78;101669.78;1783413;78;21115;-55
2021/10/08 07:50:42;;;;;;;9.37;1.90;;;;;;;8.88;47.45;101666.56;1764157;78;21078;-56
2021/10/08 07:53:08;;;;;;;8.60;2.40;;;;;;;8.97;47.16;101666.91;1797764;77;21044;-55
2021/10/08 07:55:35;;;;;;;5.97;1.60;;;;;;;9.04;47.27;101668.62;1777317;78;21082;-56
2021/10/08 07:58:01;;;;;;;10.27;2.33;;;;;;;9.11;46.81;101675.23;1797008;78;21001;-56
2021/10/08 08:00:28;;;;;;;8.47;1.83;;;;;;;9.19;46.31;101667.53;1803389;77;21180;-56
2021/10/08 08:02:54;;;;;;;6.47;2.00;;;;;;;9.26;46.30;101667.47;1801272;77;21121;-56
2021/10/08 08:05:20;;;;;;;8.63;2.40;;;;;;;9.34;45.97;101664.69;1803500;77;21442;-56
2021/10/08 08:07:48;;;;;;;8.07;1.93;;;;;;;9.38;45.79;101667.75;1764624;78;21100;-55
2021/10/08 08:10:16;;;;;;;7.63;1.20;;;;;;;9.44;45.49;101665.00;1789357;79;20871;-56
2021/10/08 08:12:42;;;;;;;9.40;2.00;;;;;;;9.52;45.18;101664.90;1789585;79;21086;-55
2021/10/08 08:15:09;;;;;;;6.80;1.42;;;;;;;9.59;44.71;101662.55;1794567;79;20874;-56
2021/10/08 08:17:35;;;;;;;13.48;2.20;;;;;;;9.64;44.66;101664.25;1789983;79;20914;-56
2021/10/08 08:20:04;;;;;;;6.05;1.20;;;;;;;9.67;44.52;101664.22;1786170;79;20957;-56
2021/10/08 08:22:30;;;;;;;8.03;1.40;;;;;;;9.66;43.88;101650.34;1786273;79;21311;-57
2021/10/08 08:24:57;;;;;;;5.90;1.73;;;;;;;9.67;44.60;101655.27;1788247;79;21103;-56
2021/10/08 08:27:23;;;;;;;16.60;2.60;;;;;;;9.69;44.47;101657.03;1787145;79;20931;-55
2021/10/08 08:29:50;;;;;;;2.97;0.93;;;;;;;9.77;44.17;101655.12;1789940;79;21420;-56
2021/10/08 08:32:16;;;;;;;2.70;1.02;;;;;;;9.88;43.65;101655.82;1788738;79;20913;-56
2021/10/08 08:34:43;;;;;;;4.20;0.80;;;;;;;9.98;43.13;101660.61;1786141;79;21231;-57
2021/10/08 08:37:09;;;;;;;3.15;1.00;;;;;;;10.06;42.34;101657.80;1789335;79;21950;-56
2021/10/08 08:39:39;;;;;;;1.75;0.70;;;;;;;10.15;42.26;101652.27;1785378;79;20913;-56
2021/10/08 08:42:04;;;;;;;1.37;0.62;;;;;;;10.22;41.69;101657.55;1776341;78;20941;-55
2021/10/08 08:44:32;;;;;;;1.10;0.90;;;;;;;10.29;41.35;101654.33;1768339;78;20967;-57
2021/10/08 08:46:58;;;;;;;2.52;0.70;;;;;;;10.38;40.77;101654.63;1771193;78;20952;-55
2021/10/08 08:49:25;;;;;;;1.12;0.80;;;;;;;10.47;40.31;101654.44;1782452;78;21518;-55
2021/10/08 08:51:52;;;;;;;1.40;0.70;;;;;;;10.56;40.14;101661.00;1770963;78;21476;-56
2021/10/08 08:54:18;;;;;;;1.10;0.70;;;;;;;10.65;39.94;101647.83;1767845;78;21466;-56
2021/10/08 08:56:44;;;;;;;2.05;0.70;;;;;;;10.68;39.12;101650.02;1768435;78;21036;-56
2021/10/08 08:59:12;;;;;;;8.15;0.78;;;;;;;10.70;39.48;101646.84;1768644;78;21099;-57
2021/10/08 09:02:02;;;;;;;3.98;0.80;;;;;;;10.77;39.33;101645.81;1765641;78;21605;-57
2021/10/08 09:04:32;;;;;;;2.60;0.80;;;;;;;10.82;39.13;101641.21;1792149;77;21036;-57
2021/10/08 09:06:59;;;;;;;3.87;0.88;;;;;;;10.87;39.43;101639.79;1797063;77;21615;-57
2021/10/08 09:09:26;;;;;;;1.92;0.60;;;;;;;10.94;39.01;101631.55;1774350;78;20971;-55
2021/10/08 09:11:55;;;;;;;4.25;0.68;;;;;;;10.96;39.08;101639.61;1765724;79;21921;-57
2021/10/08 09:14:26;;;;;;;0.78;0.50;;;;;;;10.97;38.82;101633.31;1804037;77;21114;-57
2021/10/08 09:17:16;;;;;;;2.00;0.62;;;;;;;11.00;38.27;101622.45;1769185;78;21340;-57
2021/10/08 09:20:06;;;;;;;2.50;0.40;;;;;;;11.02;37.88;101627.81;1793150;77;21093;-56
2021/10/08 09:22:49;;;;;;;1.72;0.50;;;;;;;11.08;36.61;101617.78;1763949;78;21133;-57
2021/10/08 09:25:30;;;;;;;3.17;0.55;;;;;;;11.08;36.04;101617.78;1798678;78;21312;-55
2021/10/08 09:28:09;;;;;;;4.10;0.50;;;;;;;11.12;35.65;101614.58;1777747;78;21395;-57
2021/10/08 09:30:40;;;;;;;0.78;0.50;;;;;;;11.17;35.81;101608.16;1787599;78;20898;-56
2021/10/08 09:33:09;;;;;;;10.58;0.50;;;;;;;11.25;35.61;101618.77;1796336;77;21023;-56
2021/10/08 09:35:36;;;;;;;7.72;0.50;;;;;;;11.27;35.60;101611.09;1797934;77;21300;-56
2021/10/08 09:38:06;;;;;;;6.47;0.55;;;;;;;11.30;35.42;101609.69;1775029;78;21525;-57
2021/10/08 09:40:56;;;;;;;1.20;0.40;;;;;;;11.33;35.75;101604.67;1792947;77;21356;-55
2021/10/08 09:43:27;;;;;;;0.55;0.37;;;;;;;11.38;35.28;101601.43;1752877;78;22363;-56
2021/10/08 09:46:04;;;;;;;1.65;0.45;;;;;;;11.43;35.33;101602.20;1793395;77;21077;-57
2021/10/08 09:48:41;;;;;;;1.22;0.50;;;;;;;11.42;34.47;101606.27;1777767;78;21058;-56
2021/10/08 09:51:16;;;;;;;3.52;0.50;;;;;;;11.35;34.68;101600.14;1778096;78;21111;-57
2021/10/08 09:53:52;;;;;;;1.75;0.40;;;;;;;11.35;34.96;101588.89;1774830;78;21130;-55
2021/10/08 09:56:40;;;;;;;3.85;0.85;;;;;;;11.40;34.91;101593.31;1771869;78;22837;-55
2021/10/08 09:59:10;;;;;;;3.05;1.10;;;;;;;11.44;34.70;101589.61;1774138;78;20911;-54
2021/10/08 10:01:38;;;;;;;1.00;0.50;;;;;;;11.48;34.80;101592.68;1778807;78;21350;-54
2021/10/08 10:04:06;;;;;;;1.70;0.50;;;;;;;11.52;34.70;101588.51;1773111;78;21935;-55
2021/10/08 10:06:32;;;;;;;2.52;0.40;;;;;;;11.58;34.20;101588.81;1775638;78;21735;-55
2021/10/08 10:09:02;;;;;;;6.33;0.55;;;;;;;11.60;33.73;101596.42;1783337;78;21057;-55
2021/10/08 10:11:27;;;;;;;2.58;0.60;;;;;;;11.55;33.43;101588.91;1783300;79;21780;-55
2021/10/08 10:13:57;;;;;;;1.10;0.40;;;;;;;11.51;33.87;101581.80;1785872;79;21084;-55
2021/10/08 10:16:24;;;;;;;2.60;0.50;;;;;;;11.51;32.95;101571.01;1784919;79;20958;-55
2021/10/08 10:18:57;;;;;;;1.55;0.45;;;;;;;11.46;33.99;101577.88;1796917;79;21086;-55
2021/10/08 10:21:27;;;;;;;3.42;0.60;;;;;;;11.47;34.52;101579.66;1785492;79;21330;-55
2021/10/08 10:23:55;;;;;;;3.92;0.50;;;;;;;11.55;34.69;101573.62;1797484;77;21547;-56
2021/10/08 10:26:22;;;;;;;6.22;0.70;;;;;;;11.64;34.40;101586.00;1790357;78;21443;-56
2021/10/08 10:28:48;;;;;;;0.90;0.50;;;;;;;11.65;33.17;101575.64;1802874;77;21752;-56
2021/10/08 10:31:16;;;;;;;2.10;0.50;;;;;;;11.58;33.97;101574.88;1796066;78;21060;-56
2021/10/08 10:33:43;;;;;;;3.80;0.60;;;;;;;11.58;34.24;101565.89;1771970;78;21070;-57
2021/10/08 10:36:26;;;;;;;1.00;0.60;;;;;;;11.62;34.62;101568.95;1798261;77;21349;-55
2021/10/08 10:39:18;;;;;;;5.95;0.60;;;;;;;11.65;34.32;101571.59;1791976;78;20891;-56
2021/10/08 10:42:04;;;;;;;1.40;0.60;;;;;;;11.60;34.17;101555.50;1794374;77;21598;-57
2021/10/08 10:44:39;;;;;;;4.60;0.70;;;;;;;11.56;34.85;101560.56;1793503;77;21183;-55
2021/10/08 10:47:21;;;;;;;2.92;0.60;;;;;;;11.57;34.76;101566.84;1794140;77;21077;-55
2021/10/08 10:50:11;;;;;;;1.87;0.50;;;;;;;11.58;33.75;101553.30;1782675;78;21018;-57
2021/10/08 10:52:59;;;;;;;1.95;0.60;;;;;;;11.53;33.62;101551.64;1733786;78;21533;-56
2021/10/08 10:55:25;;;;;;;1.27;0.50;;;;;;;11.42;33.59;101546.49;1795220;78;21022;-57
2021/10/08 10:57:55;;;;;;;3.98;0.78;;;;;;;11.38;34.12;101552.44;1778614;78;21521;-57
2021/10/08 11:00:25;;;;;;;1.57;0.40;;;;;;;11.40;33.59;101551.52;1792117;78;21033;-57
2021/10/08 11:03:13;;;;;;;0.98;0.53;;;;;;;11.40;33.67;101550.17;1789555;77;21084;-57
2021/10/08 11:06:09;;;;;;;10.65;0.78;;;;;;;11.41;34.09;101547.88;1790041;79;20850;-57
2021/10/08 11:09:10;;;;;;;2.42;0.57;;;;;;;11.47;33.90;101545.95;1787832;79;21940;-56
2021/10/08 11:11:38;;;;;;;3.80;0.68;;;;;;;11.54;33.93;101544.88;1787281;79;22245;-57
2021/10/08 11:14:19;;;;;;;4.08;0.60;;;;;;;11.62;33.73;101543.34;1792592;78;20873;-55
2021/10/08 11:16:47;;;;;;;1.75;0.60;;;;;;;11.66;34.03;101547.25;1794812;79;20922;-56
2021/10/08 11:19:39;;;;;;;7.87;0.50;;;;;;;11.71;33.26;101543.11;1788281;79;20870;-56
2021/10/08 11:22:05;;;;;;;1.27;0.40;;;;;;;11.74;32.73;101545.72;1791211;79;20938;-57
2021/10/08 11:24:31;;;;;;;1.47;0.40;;;;;;;11.78;32.80;101539.38;1785237;79;21111;-57
2021/10/08 11:27:02;;;;;;;1.85;0.60;;;;;;;11.83;32.59;101540.12;1788400;77;20942;-56
2021/10/08 11:29:32;;;;;;;1.50;0.60;;;;;;;11.87;32.42;101539.14;1789053;79;20882;-57
2021/10/08 11:32:06;;;;;;;1.30;0.30;;;;;;;11.87;31.99;101536.44;1796847;79;21353;-57
2021/10/08 11:34:32;;;;;;;4.95;0.30;;;;;;;11.85;31.78;101545.48;1790848;79;20930;-56
2021/10/08 11:36:59;;;;;;;0.53;0.30;;;;;;;11.83;31.94;101539.23;1798843;79;21096;-57
2021/10/08 11:42:25;;;;;;;2.77;0.30;;;;;;;11.88;32.25;101535.52;1794970;78;23006;-57
2021/10/08 11:45:01;;;;;;;2.85;0.35;;;;;;;11.88;32.09;101529.23;1762745;80;21053;-57